sensor_id;sensor_type;location;lat;lon;timestamp;P1;durP1;ratioP1;P2;durP2;ratioP2
11010;SDS011;5558;42.702;23.178;2023-07-31T00:02:14;3.67;;;3.37;;
11010;SDS011;5558;42.702;23.178;2023-07-31T00:04:41;3.90;;;3.60;;
11010;SDS011;5558;42.702;23.178;2023-07-31T00:07:07;3.73;;;3.43;;
11010;SDS011;5558;42.702;23.178;2023-07-31T00:09:34;4.10;;;3.80;;
11010;SDS011;5558;42.702;23.178;2023-07-31T00:12:01;4.03;;;3.67;;
11010;SDS011;5558;42.702;23.178;2023-07-31T00:14:28;4.37;;;4.07;;
11010;SDS011;5558;42.702;23.178;2023-07-31T00:16:54;4.17;;;3.87;;
11010;SDS011;5558;42.702;23.178;2023-07-31T00:19:22;4.90;;;4.40;;
11010;SDS011;5558;42.702;23.178;2023-07-31T00:21:49;5.10;;;4.70;;
11010;SDS011;5558;42.702;23.178;2023-07-31T00:24:16;5.60;;;5.20;;
11010;SDS011;5558;42.702;23.178;2023-07-31T00:26:42;5.43;;;5.07;;
11010;SDS011;5558;42.702;23.178;2023-07-31T00:29:09;6.10;;;5.50;;
11010;SDS011;5558;42.702;23.178;2023-07-31T00:31:36;5.50;;;5.10;;
11010;SDS011;5558;42.702;23.178;2023-07-31T00:34:02;6.33;;;5.83;;
11010;SDS011;5558;42.702;23.178;2023-07-31T00:36:30;6.23;;;5.73;;
11010;SDS011;5558;42.702;23.178;2023-07-31T00:38:57;6.80;;;6.20;;
11010;SDS011;5558;42.702;23.178;2023-07-31T00:41:24;6.87;;;6.33;;
11010;SDS011;5558;42.702;23.178;2023-07-31T00:43:50;7.40;;;6.80;;
11010;SDS011;5558;42.702;23.178;2023-07-31T00:46:17;7.07;;;6.57;;
11010;SDS011;5558;42.702;23.178;2023-07-31T00:48:44;8.37;;;7.67;;
11010;SDS011;5558;42.702;23.178;2023-07-31T00:51:10;9.27;;;8.57;;
11010;SDS011;5558;42.702;23.178;2023-07-31T00:53:39;11.10;;;10.20;;
11010;SDS011;5558;42.702;23.178;2023-07-31T00:56:06;9.53;;;8.83;;
11010;SDS011;5558;42.702;23.178;2023-07-31T00:58:33;11.93;;;10.97;;
11010;SDS011;5558;42.702;23.178;2023-07-31T01:01:00;12.33;;;11.40;;
11010;SDS011;5558;42.702;23.178;2023-07-31T01:03:27;12.07;;;11.07;;
11010;SDS011;5558;42.702;23.178;2023-07-31T01:05:56;12.60;;;11.50;;
11010;SDS011;5558;42.702;23.178;2023-07-31T01:08:35;13.03;;;11.87;;
11010;SDS011;5558;42.702;23.178;2023-07-31T01:11:07;13.77;;;12.67;;
11010;SDS011;5558;42.702;23.178;2023-07-31T01:13:42;17.10;;;15.70;;
11010;SDS011;5558;42.702;23.178;2023-07-31T01:16:09;18.70;;;17.20;;
11010;SDS011;5558;42.702;23.178;2023-07-31T01:18:35;20.57;;;18.87;;
11010;SDS011;5558;42.702;23.178;2023-07-31T01:21:03;21.23;;;19.40;;
11010;SDS011;5558;42.702;23.178;2023-07-31T01:23:51;22.70;;;20.80;;
11010;SDS011;5558;42.702;23.178;2023-07-31T01:26:36;22.80;;;20.90;;
11010;SDS011;5558;42.702;23.178;2023-07-31T01:29:06;23.63;;;21.53;;
11010;SDS011;5558;42.702;23.178;2023-07-31T01:31:39;24.63;;;22.50;;
11010;SDS011;5558;42.702;23.178;2023-07-31T01:34:08;24.83;;;22.70;;
11010;SDS011;5558;42.702;23.178;2023-07-31T01:36:36;24.70;;;22.60;;
11010;SDS011;5558;42.702;23.178;2023-07-31T01:39:02;23.93;;;21.83;;
11010;SDS011;5558;42.702;23.178;2023-07-31T01:41:29;25.40;;;23.17;;
11010;SDS011;5558;42.702;23.178;2023-07-31T01:43:58;25.00;;;22.90;;
11010;SDS011;5558;42.702;23.178;2023-07-31T01:46:24;24.57;;;22.40;;
11010;SDS011;5558;42.702;23.178;2023-07-31T01:48:51;24.13;;;22.13;;
11010;SDS011;5558;42.702;23.178;2023-07-31T01:51:18;24.73;;;22.63;;
11010;SDS011;5558;42.702;23.178;2023-07-31T01:53:44;24.43;;;22.27;;
11010;SDS011;5558;42.702;23.178;2023-07-31T01:56:11;23.70;;;21.70;;
11010;SDS011;5558;42.702;23.178;2023-07-31T01:58:38;24.13;;;22.13;;
11010;SDS011;5558;42.702;23.178;2023-07-31T02:01:06;23.83;;;21.83;;
11010;SDS011;5558;42.702;23.178;2023-07-31T02:03:32;23.50;;;21.60;;
11010;SDS011;5558;42.702;23.178;2023-07-31T02:05:59;23.47;;;21.37;;
11010;SDS011;5558;42.702;23.178;2023-07-31T02:08:26;24.30;;;22.20;;
11010;SDS011;5558;42.702;23.178;2023-07-31T02:10:53;22.10;;;20.30;;
11010;SDS011;5558;42.702;23.178;2023-07-31T02:13:20;23.27;;;21.27;;
11010;SDS011;5558;42.702;23.178;2023-07-31T02:15:47;23.07;;;20.97;;
11010;SDS011;5558;42.702;23.178;2023-07-31T02:18:15;22.73;;;20.83;;
11010;SDS011;5558;42.702;23.178;2023-07-31T02:20:42;23.10;;;21.20;;
11010;SDS011;5558;42.702;23.178;2023-07-31T02:23:11;22.53;;;20.63;;
11010;SDS011;5558;42.702;23.178;2023-07-31T02:25:37;21.60;;;19.70;;
11010;SDS011;5558;42.702;23.178;2023-07-31T02:28:04;22.67;;;20.77;;
11010;SDS011;5558;42.702;23.178;2023-07-31T02:30:31;22.67;;;20.83;;
11010;SDS011;5558;42.702;23.178;2023-07-31T02:32:57;22.03;;;20.23;;
11010;SDS011;5558;42.702;23.178;2023-07-31T02:35:25;22.10;;;20.30;;
11010;SDS011;5558;42.702;23.178;2023-07-31T02:37:52;21.27;;;19.57;;
11010;SDS011;5558;42.702;23.178;2023-07-31T02:40:19;21.80;;;19.97;;
11010;SDS011;5558;42.702;23.178;2023-07-31T02:42:45;22.97;;;21.07;;
11010;SDS011;5558;42.702;23.178;2023-07-31T02:45:12;22.57;;;20.70;;
11010;SDS011;5558;42.702;23.178;2023-07-31T02:47:39;22.63;;;20.70;;
11010;SDS011;5558;42.702;23.178;2023-07-31T02:50:06;22.77;;;20.77;;
11010;SDS011;5558;42.702;23.178;2023-07-31T02:52:34;22.90;;;20.90;;
11010;SDS011;5558;42.702;23.178;2023-07-31T02:55:01;23.63;;;21.43;;
11010;SDS011;5558;42.702;23.178;2023-07-31T02:57:28;21.60;;;19.80;;
11010;SDS011;5558;42.702;23.178;2023-07-31T02:59:54;22.70;;;20.80;;
11010;SDS011;5558;42.702;23.178;2023-07-31T03:02:21;21.80;;;20.00;;
11010;SDS011;5558;42.702;23.178;2023-07-31T03:04:48;23.03;;;21.13;;
11010;SDS011;5558;42.702;23.178;2023-07-31T03:07:14;23.10;;;21.10;;
11010;SDS011;5558;42.702;23.178;2023-07-31T03:09:42;22.70;;;20.70;;
11010;SDS011;5558;42.702;23.178;2023-07-31T03:12:09;22.80;;;20.87;;
11010;SDS011;5558;42.702;23.178;2023-07-31T03:14:36;22.97;;;20.93;;
11010;SDS011;5558;42.702;23.178;2023-07-31T03:17:03;22.80;;;20.80;;
11010;SDS011;5558;42.702;23.178;2023-07-31T03:19:30;22.53;;;20.60;;
11010;SDS011;5558;42.702;23.178;2023-07-31T03:21:57;23.60;;;21.50;;
11010;SDS011;5558;42.702;23.178;2023-07-31T03:24:24;24.27;;;22.17;;
11010;SDS011;5558;42.702;23.178;2023-07-31T03:26:52;23.87;;;21.70;;
11010;SDS011;5558;42.702;23.178;2023-07-31T03:29:19;23.27;;;21.27;;
11010;SDS011;5558;42.702;23.178;2023-07-31T03:31:45;25.17;;;22.97;;
11010;SDS011;5558;42.702;23.178;2023-07-31T03:34:12;23.80;;;21.60;;
11010;SDS011;5558;42.702;23.178;2023-07-31T03:36:38;25.07;;;22.93;;
11010;SDS011;5558;42.702;23.178;2023-07-31T03:39:05;25.30;;;22.90;;
11010;SDS011;5558;42.702;23.178;2023-07-31T03:41:32;24.47;;;22.33;;
11010;SDS011;5558;42.702;23.178;2023-07-31T03:44:00;25.10;;;22.83;;
11010;SDS011;5558;42.702;23.178;2023-07-31T03:46:27;25.30;;;23.10;;
11010;SDS011;5558;42.702;23.178;2023-07-31T03:48:53;23.33;;;21.30;;
11010;SDS011;5558;42.702;23.178;2023-07-31T03:51:20;25.37;;;23.07;;
11010;SDS011;5558;42.702;23.178;2023-07-31T03:53:47;26.10;;;23.77;;
11010;SDS011;5558;42.702;23.178;2023-07-31T03:56:13;26.30;;;23.83;;
11010;SDS011;5558;42.702;23.178;2023-07-31T03:58:40;25.70;;;23.50;;
11010;SDS011;5558;42.702;23.178;2023-07-31T04:01:08;23.73;;;21.63;;
11010;SDS011;5558;42.702;23.178;2023-07-31T04:03:35;24.17;;;22.07;;
11010;SDS011;5558;42.702;23.178;2023-07-31T04:06:01;25.23;;;22.87;;
11010;SDS011;5558;42.702;23.178;2023-07-31T04:08:28;23.23;;;21.17;;
11010;SDS011;5558;42.702;23.178;2023-07-31T04:10:55;24.47;;;22.37;;
11010;SDS011;5558;42.702;23.178;2023-07-31T04:13:22;22.93;;;21.03;;
11010;SDS011;5558;42.702;23.178;2023-07-31T04:15:49;22.90;;;20.90;;
11010;SDS011;5558;42.702;23.178;2023-07-31T04:18:17;23.27;;;21.27;;
11010;SDS011;5558;42.702;23.178;2023-07-31T04:20:44;24.33;;;22.20;;
11010;SDS011;5558;42.702;23.178;2023-07-31T04:23:10;24.20;;;22.00;;
11010;SDS011;5558;42.702;23.178;2023-07-31T04:25:37;24.53;;;22.37;;
11010;SDS011;5558;42.702;23.178;2023-07-31T04:28:04;24.20;;;22.10;;
11010;SDS011;5558;42.702;23.178;2023-07-31T04:30:32;22.77;;;20.87;;
11010;SDS011;5558;42.702;23.178;2023-07-31T04:32:59;22.00;;;20.10;;
11010;SDS011;5558;42.702;23.178;2023-07-31T04:35:27;21.77;;;19.87;;
11010;SDS011;5558;42.702;23.178;2023-07-31T04:37:53;21.73;;;19.77;;
11010;SDS011;5558;42.702;23.178;2023-07-31T04:40:20;18.47;;;16.93;;
11010;SDS011;5558;42.702;23.178;2023-07-31T04:42:47;17.70;;;16.13;;
11010;SDS011;5558;42.702;23.178;2023-07-31T04:45:14;15.23;;;13.93;;
11010;SDS011;5558;42.702;23.178;2023-07-31T04:47:40;14.27;;;13.17;;
11010;SDS011;5558;42.702;23.178;2023-07-31T04:50:07;13.80;;;12.70;;
11010;SDS011;5558;42.702;23.178;2023-07-31T04:52:36;14.20;;;13.10;;
11010;SDS011;5558;42.702;23.178;2023-07-31T04:55:03;13.30;;;12.30;;
11010;SDS011;5558;42.702;23.178;2023-07-31T04:57:29;12.07;;;11.10;;
11010;SDS011;5558;42.702;23.178;2023-07-31T04:59:56;10.13;;;9.33;;
11010;SDS011;5558;42.702;23.178;2023-07-31T05:02:23;10.67;;;9.77;;
11010;SDS011;5558;42.702;23.178;2023-07-31T05:04:50;10.33;;;9.53;;
11010;SDS011;5558;42.702;23.178;2023-07-31T05:07:16;12.97;;;10.03;;
11010;SDS011;5558;42.702;23.178;2023-07-31T05:09:44;10.13;;;9.30;;
11010;SDS011;5558;42.702;23.178;2023-07-31T05:12:11;10.30;;;9.40;;
11010;SDS011;5558;42.702;23.178;2023-07-31T05:14:38;10.40;;;9.60;;
11010;SDS011;5558;42.702;23.178;2023-07-31T05:17:05;8.63;;;8.03;;
11010;SDS011;5558;42.702;23.178;2023-07-31T05:19:32;8.47;;;7.77;;
11010;SDS011;5558;42.702;23.178;2023-07-31T05:21:58;7.80;;;7.10;;
11010;SDS011;5558;42.702;23.178;2023-07-31T05:24:25;7.33;;;6.80;;
11010;SDS011;5558;42.702;23.178;2023-07-31T05:26:53;7.20;;;6.70;;
11010;SDS011;5558;42.702;23.178;2023-07-31T05:29:20;6.83;;;6.33;;
11010;SDS011;5558;42.702;23.178;2023-07-31T05:31:46;7.00;;;6.40;;
11010;SDS011;5558;42.702;23.178;2023-07-31T05:34:13;6.67;;;6.17;;
11010;SDS011;5558;42.702;23.178;2023-07-31T05:36:40;6.73;;;6.23;;
11010;SDS011;5558;42.702;23.178;2023-07-31T05:39:06;6.87;;;6.27;;
11010;SDS011;5558;42.702;23.178;2023-07-31T05:41:33;5.97;;;5.37;;
11010;SDS011;5558;42.702;23.178;2023-07-31T05:44:03;5.40;;;5.00;;
11010;SDS011;5558;42.702;23.178;2023-07-31T05:46:30;5.50;;;5.00;;
11010;SDS011;5558;42.702;23.178;2023-07-31T05:48:57;5.30;;;4.80;;
11010;SDS011;5558;42.702;23.178;2023-07-31T05:51:25;4.30;;;4.00;;
11010;SDS011;5558;42.702;23.178;2023-07-31T05:53:52;3.93;;;3.63;;
11010;SDS011;5558;42.702;23.178;2023-07-31T05:56:19;3.80;;;3.30;;
11010;SDS011;5558;42.702;23.178;2023-07-31T05:58:46;3.83;;;3.53;;
11010;SDS011;5558;42.702;23.178;2023-07-31T06:01:16;4.30;;;3.60;;
11010;SDS011;5558;42.702;23.178;2023-07-31T06:03:43;3.73;;;3.53;;
11010;SDS011;5558;42.702;23.178;2023-07-31T06:06:10;4.50;;;3.40;;
11010;SDS011;5558;42.702;23.178;2023-07-31T06:08:38;3.80;;;3.50;;
11010;SDS011;5558;42.702;23.178;2023-07-31T06:11:05;4.20;;;3.90;;
11010;SDS011;5558;42.702;23.178;2023-07-31T06:13:33;4.17;;;3.87;;
11010;SDS011;5558;42.702;23.178;2023-07-31T06:16:00;3.90;;;3.60;;
11010;SDS011;5558;42.702;23.178;2023-07-31T06:18:31;3.67;;;3.37;;
11010;SDS011;5558;42.702;23.178;2023-07-31T06:20:58;3.87;;;3.57;;
11010;SDS011;5558;42.702;23.178;2023-07-31T06:23:25;3.93;;;3.63;;
11010;SDS011;5558;42.702;23.178;2023-07-31T06:25:51;4.10;;;3.70;;
11010;SDS011;5558;42.702;23.178;2023-07-31T06:28:18;3.90;;;3.60;;
11010;SDS011;5558;42.702;23.178;2023-07-31T06:30:44;2.87;;;2.67;;
11010;SDS011;5558;42.702;23.178;2023-07-31T06:33:11;3.10;;;2.90;;
11010;SDS011;5558;42.702;23.178;2023-07-31T06:35:39;3.10;;;2.80;;
11010;SDS011;5558;42.702;23.178;2023-07-31T06:38:06;3.07;;;2.77;;
11010;SDS011;5558;42.702;23.178;2023-07-31T06:40:32;2.93;;;2.73;;
11010;SDS011;5558;42.702;23.178;2023-07-31T06:42:59;3.10;;;2.83;;
11010;SDS011;5558;42.702;23.178;2023-07-31T06:45:32;2.93;;;2.63;;
11010;SDS011;5558;42.702;23.178;2023-07-31T06:47:59;3.83;;;2.90;;
11010;SDS011;5558;42.702;23.178;2023-07-31T06:50:27;3.00;;;2.80;;
11010;SDS011;5558;42.702;23.178;2023-07-31T06:52:55;2.87;;;2.67;;
11010;SDS011;5558;42.702;23.178;2023-07-31T06:55:22;4.43;;;2.80;;
11010;SDS011;5558;42.702;23.178;2023-07-31T06:57:50;2.90;;;2.70;;
11010;SDS011;5558;42.702;23.178;2023-07-31T07:00:18;2.80;;;2.60;;
11010;SDS011;5558;42.702;23.178;2023-07-31T07:02:45;2.97;;;2.60;;
11010;SDS011;5558;42.702;23.178;2023-07-31T07:05:13;2.30;;;2.20;;
11010;SDS011;5558;42.702;23.178;2023-07-31T07:07:40;2.50;;;2.40;;
11010;SDS011;5558;42.702;23.178;2023-07-31T07:10:09;2.53;;;2.30;;
11010;SDS011;5558;42.702;23.178;2023-07-31T07:12:36;2.40;;;2.30;;
11010;SDS011;5558;42.702;23.178;2023-07-31T07:15:03;2.20;;;2.00;;
11010;SDS011;5558;42.702;23.178;2023-07-31T07:17:31;2.20;;;2.10;;
11010;SDS011;5558;42.702;23.178;2023-07-31T07:19:57;2.17;;;2.07;;
11010;SDS011;5558;42.702;23.178;2023-07-31T07:22:24;2.40;;;2.20;;
11010;SDS011;5558;42.702;23.178;2023-07-31T07:24:52;2.03;;;1.90;;
11010;SDS011;5558;42.702;23.178;2023-07-31T07:27:20;2.33;;;2.00;;
11010;SDS011;5558;42.702;23.178;2023-07-31T07:29:47;2.20;;;2.10;;
11010;SDS011;5558;42.702;23.178;2023-07-31T07:32:16;2.20;;;2.00;;
11010;SDS011;5558;42.702;23.178;2023-07-31T07:34:43;2.20;;;2.00;;
11010;SDS011;5558;42.702;23.178;2023-07-31T07:37:10;2.13;;;2.00;;
11010;SDS011;5558;42.702;23.178;2023-07-31T07:39:36;4.83;;;2.20;;
11010;SDS011;5558;42.702;23.178;2023-07-31T07:42:03;2.20;;;2.00;;
11010;SDS011;5558;42.702;23.178;2023-07-31T07:44:31;2.63;;;2.07;;
11010;SDS011;5558;42.702;23.178;2023-07-31T07:46:58;3.10;;;2.20;;
11010;SDS011;5558;42.702;23.178;2023-07-31T07:49:24;2.10;;;2.00;;
11010;SDS011;5558;42.702;23.178;2023-07-31T07:51:51;2.50;;;2.10;;
11010;SDS011;5558;42.702;23.178;2023-07-31T07:54:18;2.20;;;2.10;;
11010;SDS011;5558;42.702;23.178;2023-07-31T07:56:46;3.30;;;2.50;;
11010;SDS011;5558;42.702;23.178;2023-07-31T07:59:13;2.17;;;2.07;;
11010;SDS011;5558;42.702;23.178;2023-07-31T08:01:41;2.33;;;2.13;;
11010;SDS011;5558;42.702;23.178;2023-07-31T08:04:07;2.13;;;2.00;;
11010;SDS011;5558;42.702;23.178;2023-07-31T08:06:34;2.47;;;2.10;;
11010;SDS011;5558;42.702;23.178;2023-07-31T08:09:01;2.57;;;2.10;;
11010;SDS011;5558;42.702;23.178;2023-07-31T08:11:31;2.10;;;1.90;;
11010;SDS011;5558;42.702;23.178;2023-07-31T08:13:57;2.33;;;2.00;;
11010;SDS011;5558;42.702;23.178;2023-07-31T08:16:24;2.00;;;1.90;;
11010;SDS011;5558;42.702;23.178;2023-07-31T08:18:52;2.30;;;2.00;;
11010;SDS011;5558;42.702;23.178;2023-07-31T08:21:19;2.30;;;2.10;;
11010;SDS011;5558;42.702;23.178;2023-07-31T08:23:46;2.20;;;2.10;;
11010;SDS011;5558;42.702;23.178;2023-07-31T08:26:14;2.13;;;2.03;;
11010;SDS011;5558;42.702;23.178;2023-07-31T08:28:41;2.23;;;2.00;;
11010;SDS011;5558;42.702;23.178;2023-07-31T08:31:08;2.27;;;2.00;;
11010;SDS011;5558;42.702;23.178;2023-07-31T08:33:35;2.07;;;1.97;;
11010;SDS011;5558;42.702;23.178;2023-07-31T08:36:04;2.10;;;1.97;;
11010;SDS011;5558;42.702;23.178;2023-07-31T08:38:31;1.90;;;1.80;;
11010;SDS011;5558;42.702;23.178;2023-07-31T08:40:58;1.97;;;1.87;;
11010;SDS011;5558;42.702;23.178;2023-07-31T08:43:25;2.00;;;1.90;;
11010;SDS011;5558;42.702;23.178;2023-07-31T08:45:52;2.27;;;1.80;;
11010;SDS011;5558;42.702;23.178;2023-07-31T08:48:21;2.13;;;2.00;;
11010;SDS011;5558;42.702;23.178;2023-07-31T08:50:49;2.37;;;2.10;;
11010;SDS011;5558;42.702;23.178;2023-07-31T08:53:17;2.03;;;1.93;;
11010;SDS011;5558;42.702;23.178;2023-07-31T08:55:44;2.60;;;2.40;;
11010;SDS011;5558;42.702;23.178;2023-07-31T08:58:12;2.33;;;2.13;;
11010;SDS011;5558;42.702;23.178;2023-07-31T09:00:40;2.80;;;2.27;;
11010;SDS011;5558;42.702;23.178;2023-07-31T09:03:12;4.03;;;2.20;;
11010;SDS011;5558;42.702;23.178;2023-07-31T09:05:41;2.43;;;2.23;;
11010;SDS011;5558;42.702;23.178;2023-07-31T09:08:09;2.10;;;2.00;;
11010;SDS011;5558;42.702;23.178;2023-07-31T09:10:41;2.87;;;2.20;;
11010;SDS011;5558;42.702;23.178;2023-07-31T09:13:08;3.07;;;2.23;;
11010;SDS011;5558;42.702;23.178;2023-07-31T09:15:35;2.37;;;2.10;;
11010;SDS011;5558;42.702;23.178;2023-07-31T09:18:02;2.47;;;2.20;;
11010;SDS011;5558;42.702;23.178;2023-07-31T09:20:29;2.30;;;2.10;;
11010;SDS011;5558;42.702;23.178;2023-07-31T09:23:04;3.20;;;2.37;;
11010;SDS011;5558;42.702;23.178;2023-07-31T09:25:32;2.10;;;2.00;;
11010;SDS011;5558;42.702;23.178;2023-07-31T09:28:01;4.17;;;2.00;;
11010;SDS011;5558;42.702;23.178;2023-07-31T09:30:29;2.10;;;2.00;;
11010;SDS011;5558;42.702;23.178;2023-07-31T09:33:00;2.20;;;2.10;;
11010;SDS011;5558;42.702;23.178;2023-07-31T09:35:29;2.20;;;2.10;;
11010;SDS011;5558;42.702;23.178;2023-07-31T09:37:57;2.20;;;2.00;;
11010;SDS011;5558;42.702;23.178;2023-07-31T09:40:26;2.00;;;1.90;;
11010;SDS011;5558;42.702;23.178;2023-07-31T09:42:55;3.17;;;1.90;;
11010;SDS011;5558;42.702;23.178;2023-07-31T09:45:25;2.00;;;1.90;;
11010;SDS011;5558;42.702;23.178;2023-07-31T09:47:53;2.23;;;1.80;;
11010;SDS011;5558;42.702;23.178;2023-07-31T09:50:20;2.03;;;1.83;;
11010;SDS011;5558;42.702;23.178;2023-07-31T09:52:48;2.00;;;1.70;;
11010;SDS011;5558;42.702;23.178;2023-07-31T09:55:15;1.83;;;1.73;;
11010;SDS011;5558;42.702;23.178;2023-07-31T09:57:43;3.10;;;1.67;;
11010;SDS011;5558;42.702;23.178;2023-07-31T10:00:12;1.90;;;1.80;;
11010;SDS011;5558;42.702;23.178;2023-07-31T10:02:41;1.63;;;1.53;;
11010;SDS011;5558;42.702;23.178;2023-07-31T10:05:12;1.80;;;1.70;;
11010;SDS011;5558;42.702;23.178;2023-07-31T10:07:42;1.80;;;1.70;;
11010;SDS011;5558;42.702;23.178;2023-07-31T10:10:11;2.00;;;1.80;;
11010;SDS011;5558;42.702;23.178;2023-07-31T10:12:41;1.80;;;1.70;;
11010;SDS011;5558;42.702;23.178;2023-07-31T10:15:10;4.07;;;1.83;;
11010;SDS011;5558;42.702;23.178;2023-07-31T10:17:37;1.83;;;1.70;;
11010;SDS011;5558;42.702;23.178;2023-07-31T10:20:06;1.90;;;1.80;;
11010;SDS011;5558;42.702;23.178;2023-07-31T10:22:34;2.00;;;1.60;;
11010;SDS011;5558;42.702;23.178;2023-07-31T10:25:01;1.90;;;1.80;;
11010;SDS011;5558;42.702;23.178;2023-07-31T10:27:28;1.80;;;1.70;;
11010;SDS011;5558;42.702;23.178;2023-07-31T10:29:55;1.57;;;1.47;;
11010;SDS011;5558;42.702;23.178;2023-07-31T10:32:23;1.97;;;1.57;;
11010;SDS011;5558;42.702;23.178;2023-07-31T10:34:51;2.07;;;1.60;;
11010;SDS011;5558;42.702;23.178;2023-07-31T10:37:23;1.60;;;1.50;;
11010;SDS011;5558;42.702;23.178;2023-07-31T10:39:58;1.77;;;1.40;;
11010;SDS011;5558;42.702;23.178;2023-07-31T10:42:32;1.40;;;1.40;;
11010;SDS011;5558;42.702;23.178;2023-07-31T10:45:02;1.67;;;1.47;;
11010;SDS011;5558;42.702;23.178;2023-07-31T10:47:31;1.83;;;1.10;;
11010;SDS011;5558;42.702;23.178;2023-07-31T10:50:11;1.57;;;1.47;;
11010;SDS011;5558;42.702;23.178;2023-07-31T10:52:45;1.50;;;1.40;;
11010;SDS011;5558;42.702;23.178;2023-07-31T10:55:15;6.77;;;1.70;;
11010;SDS011;5558;42.702;23.178;2023-07-31T10:57:48;1.37;;;1.30;;
11010;SDS011;5558;42.702;23.178;2023-07-31T11:00:18;1.40;;;1.20;;
11010;SDS011;5558;42.702;23.178;2023-07-31T11:02:56;1.40;;;1.30;;
11010;SDS011;5558;42.702;23.178;2023-07-31T11:08:17;2.07;;;1.50;;
11010;SDS011;5558;42.702;23.178;2023-07-31T11:10:46;1.83;;;1.50;;
11010;SDS011;5558;42.702;23.178;2023-07-31T11:13:14;1.40;;;1.30;;
11010;SDS011;5558;42.702;23.178;2023-07-31T11:15:41;2.57;;;1.47;;
11010;SDS011;5558;42.702;23.178;2023-07-31T11:18:07;1.60;;;1.50;;
11010;SDS011;5558;42.702;23.178;2023-07-31T11:20:36;1.80;;;1.50;;
11010;SDS011;5558;42.702;23.178;2023-07-31T11:23:05;2.30;;;2.10;;
11010;SDS011;5558;42.702;23.178;2023-07-31T11:25:35;2.50;;;2.13;;
11010;SDS011;5558;42.702;23.178;2023-07-31T11:28:03;3.57;;;2.10;;
11010;SDS011;5558;42.702;23.178;2023-07-31T11:30:31;2.17;;;2.07;;
11010;SDS011;5558;42.702;23.178;2023-07-31T11:32:57;2.37;;;2.17;;
11010;SDS011;5558;42.702;23.178;2023-07-31T11:35:24;2.23;;;2.13;;
11010;SDS011;5558;42.702;23.178;2023-07-31T11:37:51;2.13;;;2.03;;
11010;SDS011;5558;42.702;23.178;2023-07-31T11:40:18;2.90;;;2.53;;
11010;SDS011;5558;42.702;23.178;2023-07-31T11:42:46;2.60;;;2.40;;
11010;SDS011;5558;42.702;23.178;2023-07-31T11:45:13;2.60;;;2.50;;
11010;SDS011;5558;42.702;23.178;2023-07-31T11:47:39;2.97;;;2.77;;
11010;SDS011;5558;42.702;23.178;2023-07-31T11:50:07;3.23;;;2.93;;
11010;SDS011;5558;42.702;23.178;2023-07-31T11:52:37;3.20;;;3.00;;
11010;SDS011;5558;42.702;23.178;2023-07-31T11:55:07;4.10;;;3.80;;
11010;SDS011;5558;42.702;23.178;2023-07-31T11:57:36;4.60;;;4.20;;
11010;SDS011;5558;42.702;23.178;2023-07-31T12:00:07;4.90;;;4.53;;
11010;SDS011;5558;42.702;23.178;2023-07-31T12:02:36;4.50;;;4.10;;
11010;SDS011;5558;42.702;23.178;2023-07-31T12:05:04;5.40;;;5.00;;
11010;SDS011;5558;42.702;23.178;2023-07-31T12:07:42;5.83;;;5.33;;
11010;SDS011;5558;42.702;23.178;2023-07-31T12:10:10;5.07;;;4.67;;
11010;SDS011;5558;42.702;23.178;2023-07-31T12:12:37;5.30;;;4.90;;
11010;SDS011;5558;42.702;23.178;2023-07-31T12:15:14;5.60;;;5.20;;
11010;SDS011;5558;42.702;23.178;2023-07-31T12:17:41;5.30;;;4.90;;
11010;SDS011;5558;42.702;23.178;2023-07-31T12:20:09;4.40;;;4.10;;
11010;SDS011;5558;42.702;23.178;2023-07-31T12:22:36;4.60;;;4.30;;
11010;SDS011;5558;42.702;23.178;2023-07-31T12:25:03;5.03;;;4.60;;
11010;SDS011;5558;42.702;23.178;2023-07-31T12:27:32;5.23;;;4.83;;
11010;SDS011;5558;42.702;23.178;2023-07-31T12:29:59;4.70;;;4.40;;
11010;SDS011;5558;42.702;23.178;2023-07-31T12:32:29;4.97;;;4.57;;
11010;SDS011;5558;42.702;23.178;2023-07-31T12:34:59;5.50;;;5.10;;
11010;SDS011;5558;42.702;23.178;2023-07-31T12:37:26;6.20;;;5.70;;
11010;SDS011;5558;42.702;23.178;2023-07-31T12:39:53;4.87;;;4.57;;
11010;SDS011;5558;42.702;23.178;2023-07-31T12:42:19;5.20;;;4.87;;
11010;SDS011;5558;42.702;23.178;2023-07-31T12:44:46;5.23;;;4.93;;
11010;SDS011;5558;42.702;23.178;2023-07-31T12:47:12;5.80;;;5.40;;
11010;SDS011;5558;42.702;23.178;2023-07-31T12:49:41;5.87;;;4.63;;
11010;SDS011;5558;42.702;23.178;2023-07-31T12:52:08;5.17;;;4.77;;
11010;SDS011;5558;42.702;23.178;2023-07-31T12:54:35;5.57;;;5.07;;
11010;SDS011;5558;42.702;23.178;2023-07-31T12:57:01;5.57;;;5.07;;
11010;SDS011;5558;42.702;23.178;2023-07-31T12:59:28;4.60;;;4.30;;
11010;SDS011;5558;42.702;23.178;2023-07-31T13:01:55;4.37;;;4.00;;
11010;SDS011;5558;42.702;23.178;2023-07-31T13:04:21;4.17;;;3.90;;
11010;SDS011;5558;42.702;23.178;2023-07-31T13:06:49;4.03;;;3.77;;
11010;SDS011;5558;42.702;23.178;2023-07-31T13:09:16;4.10;;;3.80;;
11010;SDS011;5558;42.702;23.178;2023-07-31T13:11:43;3.60;;;3.30;;
11010;SDS011;5558;42.702;23.178;2023-07-31T13:14:09;3.70;;;3.40;;
11010;SDS011;5558;42.702;23.178;2023-07-31T13:16:37;3.80;;;3.23;;
11010;SDS011;5558;42.702;23.178;2023-07-31T13:19:04;3.10;;;2.80;;
11010;SDS011;5558;42.702;23.178;2023-07-31T13:21:30;2.90;;;2.70;;
11010;SDS011;5558;42.702;23.178;2023-07-31T13:23:58;2.87;;;2.67;;
11010;SDS011;5558;42.702;23.178;2023-07-31T13:26:25;3.63;;;3.10;;
11010;SDS011;5558;42.702;23.178;2023-07-31T13:28:52;3.30;;;3.10;;
11010;SDS011;5558;42.702;23.178;2023-07-31T13:31:19;4.47;;;3.23;;
11010;SDS011;5558;42.702;23.178;2023-07-31T13:33:45;3.20;;;3.00;;
11010;SDS011;5558;42.702;23.178;2023-07-31T13:36:12;5.60;;;3.10;;
11010;SDS011;5558;42.702;23.178;2023-07-31T13:38:39;3.27;;;3.07;;
11010;SDS011;5558;42.702;23.178;2023-07-31T13:41:07;13.83;;;3.43;;
11010;SDS011;5558;42.702;23.178;2023-07-31T13:43:34;3.00;;;2.80;;
11010;SDS011;5558;42.702;23.178;2023-07-31T13:46:01;3.40;;;3.10;;
11010;SDS011;5558;42.702;23.178;2023-07-31T13:48:31;3.57;;;3.37;;
11010;SDS011;5558;42.702;23.178;2023-07-31T13:50:58;9.77;;;3.40;;
11010;SDS011;5558;42.702;23.178;2023-07-31T13:53:25;4.20;;;3.30;;
11010;SDS011;5558;42.702;23.178;2023-07-31T13:55:51;3.00;;;2.80;;
11010;SDS011;5558;42.702;23.178;2023-07-31T13:58:20;3.40;;;3.10;;
11010;SDS011;5558;42.702;23.178;2023-07-31T14:00:47;3.23;;;2.97;;
11010;SDS011;5558;42.702;23.178;2023-07-31T14:03:13;3.30;;;3.03;;
11010;SDS011;5558;42.702;23.178;2023-07-31T14:05:40;3.00;;;2.80;;
11010;SDS011;5558;42.702;23.178;2023-07-31T14:08:07;3.17;;;2.70;;
11010;SDS011;5558;42.702;23.178;2023-07-31T14:10:33;2.80;;;2.60;;
11010;SDS011;5558;42.702;23.178;2023-07-31T14:13:00;2.80;;;2.60;;
11010;SDS011;5558;42.702;23.178;2023-07-31T14:15:28;3.07;;;2.87;;
11010;SDS011;5558;42.702;23.178;2023-07-31T14:17:57;3.53;;;2.80;;
11010;SDS011;5558;42.702;23.178;2023-07-31T14:20:23;3.00;;;2.80;;
11010;SDS011;5558;42.702;23.178;2023-07-31T14:22:50;3.20;;;2.90;;
11010;SDS011;5558;42.702;23.178;2023-07-31T14:25:17;17.67;;;3.17;;
11010;SDS011;5558;42.702;23.178;2023-07-31T14:27:43;2.90;;;2.70;;
11010;SDS011;5558;42.702;23.178;2023-07-31T14:30:10;3.03;;;2.70;;
11010;SDS011;5558;42.702;23.178;2023-07-31T14:32:38;2.83;;;2.63;;
11010;SDS011;5558;42.702;23.178;2023-07-31T14:35:05;2.90;;;2.70;;
11010;SDS011;5558;42.702;23.178;2023-07-31T14:37:36;2.90;;;2.60;;
11010;SDS011;5558;42.702;23.178;2023-07-31T14:40:04;2.70;;;2.50;;
11010;SDS011;5558;42.702;23.178;2023-07-31T14:42:31;3.17;;;2.60;;
11010;SDS011;5558;42.702;23.178;2023-07-31T14:44:57;2.60;;;2.50;;
11010;SDS011;5558;42.702;23.178;2023-07-31T14:47:24;3.77;;;2.80;;